sensor_id;sensor_type;location;lat;lon;timestamp;P1;P2;P0
64861;PMS5003;62652;42.274;-71.436;2023-08-21T00:00:00;68.73;56.33;35.73
64861;PMS5003;62652;42.274;-71.436;2023-08-21T00:01:00;64.27;51.20;33.07
64861;PMS5003;62652;42.274;-71.436;2023-08-21T00:02:00;62.37;50.10;32.57
64861;PMS5003;62652;42.274;-71.436;2023-08-21T00:03:00;64.77;52.43;34.23
64861;PMS5003;62652;42.274;-71.436;2023-08-21T00:04:00;61.40;49.03;32.27
64861;PMS5003;62652;42.274;-71.436;2023-08-21T00:05:00;58.43;47.03;30.33
64861;PMS5003;62652;42.274;-71.436;2023-08-21T00:06:00;60.07;48.43;32.60
64861;PMS5003;62652;42.274;-71.436;2023-08-21T00:07:00;78.37;70.93;48.90
64861;PMS5003;62652;42.274;-71.436;2023-08-21T00:08:00;79.23;75.47;53.00
64861;PMS5003;62652;42.274;-71.436;2023-08-21T00:09:01;72.07;62.10;41.17
64861;PMS5003;62652;42.274;-71.436;2023-08-21T00:10:00;57.67;47.27;32.20
64861;PMS5003;62652;42.274;-71.436;2023-08-21T00:11:00;67.73;55.07;36.07
64861;PMS5003;62652;42.274;-71.436;2023-08-21T00:12:00;79.17;72.23;48.03
64861;PMS5003;62652;42.274;-71.436;2023-08-21T00:13:00;69.20;57.47;39.57
64861;PMS5003;62652;42.274;-71.436;2023-08-21T00:14:00;73.37;63.00;41.83
64861;PMS5003;62652;42.274;-71.436;2023-08-21T00:15:00;87.67;83.73;55.50
64861;PMS5003;62652;42.274;-71.436;2023-08-21T00:16:00;72.20;62.27;41.43
64861;PMS5003;62652;42.274;-71.436;2023-08-21T00:17:00;65.23;52.70;34.83
64861;PMS5003;62652;42.274;-71.436;2023-08-21T00:18:00;59.90;48.53;32.90
64861;PMS5003;62652;42.274;-71.436;2023-08-21T00:19:00;52.77;44.23;29.60
64861;PMS5003;62652;42.274;-71.436;2023-08-21T00:20:00;52.27;43.47;28.27
64861;PMS5003;62652;42.274;-71.436;2023-08-21T00:21:01;46.00;38.13;23.77
64861;PMS5003;62652;42.274;-71.436;2023-08-21T00:22:00;41.63;35.47;21.43
64861;PMS5003;62652;42.274;-71.436;2023-08-21T00:23:00;35.67;32.60;20.60
64861;PMS5003;62652;42.274;-71.436;2023-08-21T00:24:00;34.50;30.67;20.13
64861;PMS5003;62652;42.274;-71.436;2023-08-21T00:25:00;35.93;32.70;19.97
64861;PMS5003;62652;42.274;-71.436;2023-08-21T00:26:00;37.50;32.07;20.70
64861;PMS5003;62652;42.274;-71.436;2023-08-21T00:27:00;32.80;30.17;18.93
64861;PMS5003;62652;42.274;-71.436;2023-08-21T00:28:00;33.20;31.33;19.73
64861;PMS5003;62652;42.274;-71.436;2023-08-21T00:29:00;35.07;31.27;19.30
64861;PMS5003;62652;42.274;-71.436;2023-08-21T00:30:00;31.40;29.57;18.50
64861;PMS5003;62652;42.274;-71.436;2023-08-21T00:31:01;35.47;32.30;20.70
64861;PMS5003;62652;42.274;-71.436;2023-08-21T00:32:00;39.83;34.47;21.20
64861;PMS5003;62652;42.274;-71.436;2023-08-21T00:33:00;41.07;34.37;20.83
64861;PMS5003;62652;42.274;-71.436;2023-08-21T00:34:00;42.47;36.17;22.57
64861;PMS5003;62652;42.274;-71.436;2023-08-21T00:35:00;40.63;35.17;22.87
64861;PMS5003;62652;42.274;-71.436;2023-08-21T00:36:00;49.40;41.87;27.20
64861;PMS5003;62652;42.274;-71.436;2023-08-21T00:37:00;61.00;48.97;32.77
64861;PMS5003;62652;42.274;-71.436;2023-08-21T00:38:00;74.17;66.97;45.23
64861;PMS5003;62652;42.274;-71.436;2023-08-21T00:39:00;75.03;66.50;45.37
64861;PMS5003;62652;42.274;-71.436;2023-08-21T00:40:00;57.57;46.87;31.10
64861;PMS5003;62652;42.274;-71.436;2023-08-21T00:41:00;46.93;39.30;26.60
64861;PMS5003;62652;42.274;-71.436;2023-08-21T00:42:01;47.37;39.60;25.33
64861;PMS5003;62652;42.274;-71.436;2023-08-21T00:43:00;51.17;42.47;27.07
64861;PMS5003;62652;42.274;-71.436;2023-08-21T00:44:00;43.37;37.67;25.87
64861;PMS5003;62652;42.274;-71.436;2023-08-21T00:45:00;48.70;39.87;25.20
64861;PMS5003;62652;42.274;-71.436;2023-08-21T00:46:00;41.63;35.27;21.77
64861;PMS5003;62652;42.274;-71.436;2023-08-21T00:47:00;36.57;32.50;20.37
64861;PMS5003;62652;42.274;-71.436;2023-08-21T00:48:00;36.67;33.13;20.00
64861;PMS5003;62652;42.274;-71.436;2023-08-21T00:49:00;33.30;30.47;20.00
64861;PMS5003;62652;42.274;-71.436;2023-08-21T00:50:00;35.07;31.93;19.70
64861;PMS5003;62652;42.274;-71.436;2023-08-21T00:51:00;32.23;30.40;18.97
64861;PMS5003;62652;42.274;-71.436;2023-08-21T00:52:00;41.57;34.10;20.80
64861;PMS5003;62652;42.274;-71.436;2023-08-21T00:53:01;36.57;33.60;20.17
64861;PMS5003;62652;42.274;-71.436;2023-08-21T00:54:00;33.43;31.73;20.23
64861;PMS5003;62652;42.274;-71.436;2023-08-21T00:55:00;41.83;34.93;22.07
64861;PMS5003;62652;42.274;-71.436;2023-08-21T00:56:00;40.63;34.67;22.03
64861;PMS5003;62652;42.274;-71.436;2023-08-21T00:57:00;39.47;34.23;21.90
64861;PMS5003;62652;42.274;-71.436;2023-08-21T00:58:00;40.23;34.40;21.30
64861;PMS5003;62652;42.274;-71.436;2023-08-21T00:59:00;40.33;35.23;22.10
64861;PMS5003;62652;42.274;-71.436;2023-08-21T01:00:00;37.43;33.13;21.60
64861;PMS5003;62652;42.274;-71.436;2023-08-21T01:01:00;41.50;34.03;21.03
64861;PMS5003;62652;42.274;-71.436;2023-08-21T01:02:00;40.50;35.03;21.07
64861;PMS5003;62652;42.274;-71.436;2023-08-21T01:03:00;38.83;34.23;21.70
64861;PMS5003;62652;42.274;-71.436;2023-08-21T01:04:00;35.87;32.50;19.93
64861;PMS5003;62652;42.274;-71.436;2023-08-21T01:05:00;34.00;31.60;20.03
64861;PMS5003;62652;42.274;-71.436;2023-08-21T01:06:00;36.90;32.60;19.77
64861;PMS5003;62652;42.274;-71.436;2023-08-21T01:07:00;37.50;32.23;20.03
64861;PMS5003;62652;42.274;-71.436;2023-08-21T01:08:01;35.03;31.77;20.20
64861;PMS5003;62652;42.274;-71.436;2023-08-21T01:09:02;39.30;33.90;19.93
64861;PMS5003;62652;42.274;-71.436;2023-08-21T01:10:02;35.60;31.60;19.33
64861;PMS5003;62652;42.274;-71.436;2023-08-21T01:11:02;37.23;32.70;20.67
64861;PMS5003;62652;42.274;-71.436;2023-08-21T01:12:03;36.00;31.83;20.33
64861;PMS5003;62652;42.274;-71.436;2023-08-21T01:13:01;36.80;33.03;20.30
64861;PMS5003;62652;42.274;-71.436;2023-08-21T01:14:02;35.10;30.87;19.37
64861;PMS5003;62652;42.274;-71.436;2023-08-21T01:15:01;34.93;30.77;20.00
64861;PMS5003;62652;42.274;-71.436;2023-08-21T01:16:00;35.17;32.03;19.07
64861;PMS5003;62652;42.274;-71.436;2023-08-21T01:17:00;36.10;32.33;20.47
64861;PMS5003;62652;42.274;-71.436;2023-08-21T01:18:00;39.67;34.00;22.80
64861;PMS5003;62652;42.274;-71.436;2023-08-21T01:19:00;37.63;33.63;21.63
64861;PMS5003;62652;42.274;-71.436;2023-08-21T01:20:00;38.80;33.50;19.90
64861;PMS5003;62652;42.274;-71.436;2023-08-21T01:21:02;32.43;29.43;19.77
64861;PMS5003;62652;42.274;-71.436;2023-08-21T01:22:00;38.83;33.57;20.67
64861;PMS5003;62652;42.274;-71.436;2023-08-21T01:23:03;37.73;33.50;20.83
64861;PMS5003;62652;42.274;-71.436;2023-08-21T01:24:00;33.50;30.00;19.70
64861;PMS5003;62652;42.274;-71.436;2023-08-21T01:25:00;36.93;32.50;19.90
64861;PMS5003;62652;42.274;-71.436;2023-08-21T01:26:00;31.73;30.23;19.47
64861;PMS5003;62652;42.274;-71.436;2023-08-21T01:27:00;31.97;29.83;19.00
64861;PMS5003;62652;42.274;-71.436;2023-08-21T01:28:00;29.97;28.07;18.30
64861;PMS5003;62652;42.274;-71.436;2023-08-21T01:29:00;34.07;30.70;18.53
64861;PMS5003;62652;42.274;-71.436;2023-08-21T01:30:00;33.00;30.03;19.27
64861;PMS5003;62652;42.274;-71.436;2023-08-21T01:31:02;29.60;28.77;17.37
64861;PMS5003;62652;42.274;-71.436;2023-08-21T01:32:01;31.00;29.47;18.30
64861;PMS5003;62652;42.274;-71.436;2023-08-21T01:33:01;32.00;29.87;18.17
64861;PMS5003;62652;42.274;-71.436;2023-08-21T01:34:02;30.23;28.33;18.70
64861;PMS5003;62652;42.274;-71.436;2023-08-21T01:35:00;33.77;30.07;18.70
64861;PMS5003;62652;42.274;-71.436;2023-08-21T01:36:00;32.43;29.80;17.57
64861;PMS5003;62652;42.274;-71.436;2023-08-21T01:37:01;32.70;30.70;18.87
64861;PMS5003;62652;42.274;-71.436;2023-08-21T01:38:00;32.67;30.53;17.23
64861;PMS5003;62652;42.274;-71.436;2023-08-21T01:39:00;33.13;30.90;17.50
64861;PMS5003;62652;42.274;-71.436;2023-08-21T01:40:00;30.13;28.30;17.23
64861;PMS5003;62652;42.274;-71.436;2023-08-21T01:41:00;30.33;28.73;18.23
64861;PMS5003;62652;42.274;-71.436;2023-08-21T01:42:00;32.73;29.53;17.63
64861;PMS5003;62652;42.274;-71.436;2023-08-21T01:43:00;29.03;26.73;15.83
64861;PMS5003;62652;42.274;-71.436;2023-08-21T01:44:00;31.33;29.47;17.77
64861;PMS5003;62652;42.274;-71.436;2023-08-21T01:45:00;27.20;25.10;16.07
64861;PMS5003;62652;42.274;-71.436;2023-08-21T01:46:01;29.83;28.10;18.07
64861;PMS5003;62652;42.274;-71.436;2023-08-21T01:47:00;29.57;28.37;17.90
64861;PMS5003;62652;42.274;-71.436;2023-08-21T01:48:00;28.47;27.70;16.33
64861;PMS5003;62652;42.274;-71.436;2023-08-21T01:49:00;32.90;29.37;16.73
64861;PMS5003;62652;42.274;-71.436;2023-08-21T01:50:00;28.67;27.13;16.33
64861;PMS5003;62652;42.274;-71.436;2023-08-21T01:51:00;32.23;29.83;18.83
64861;PMS5003;62652;42.274;-71.436;2023-08-21T01:52:00;32.87;28.97;17.87
64861;PMS5003;62652;42.274;-71.436;2023-08-21T01:53:00;29.13;27.63;17.60
64861;PMS5003;62652;42.274;-71.436;2023-08-21T01:54:00;31.20;29.37;17.67
64861;PMS5003;62652;42.274;-71.436;2023-08-21T01:55:00;33.30;29.30;18.00
64861;PMS5003;62652;42.274;-71.436;2023-08-21T01:56:00;31.27;29.87;19.07
64861;PMS5003;62652;42.274;-71.436;2023-08-21T01:57:00;32.07;30.07;17.93
64861;PMS5003;62652;42.274;-71.436;2023-08-21T01:58:00;30.07;28.80;17.07
64861;PMS5003;62652;42.274;-71.436;2023-08-21T01:59:00;29.13;28.57;17.57
64861;PMS5003;62652;42.274;-71.436;2023-08-21T02:00:00;29.60;28.50;17.97
64861;PMS5003;62652;42.274;-71.436;2023-08-21T02:01:00;29.37;27.83;16.33
64861;PMS5003;62652;42.274;-71.436;2023-08-21T02:02:00;30.30;28.87;18.07
64861;PMS5003;62652;42.274;-71.436;2023-08-21T02:03:00;29.83;28.33;17.57
64861;PMS5003;62652;42.274;-71.436;2023-08-21T02:04:00;33.13;30.07;16.90
64861;PMS5003;62652;42.274;-71.436;2023-08-21T02:05:00;32.17;29.60;16.60
64861;PMS5003;62652;42.274;-71.436;2023-08-21T02:06:00;34.07;30.73;18.07
64861;PMS5003;62652;42.274;-71.436;2023-08-21T02:07:00;27.93;27.33;18.57
64861;PMS5003;62652;42.274;-71.436;2023-08-21T02:08:00;28.47;26.77;17.73
64861;PMS5003;62652;42.274;-71.436;2023-08-21T02:09:00;32.47;27.27;16.50
64861;PMS5003;62652;42.274;-71.436;2023-08-21T02:10:00;31.30;29.67;17.87
64861;PMS5003;62652;42.274;-71.436;2023-08-21T02:11:00;29.30;27.17;16.53
64861;PMS5003;62652;42.274;-71.436;2023-08-21T02:12:00;34.17;30.67;17.90
64861;PMS5003;62652;42.274;-71.436;2023-08-21T02:13:00;31.10;29.10;17.07
64861;PMS5003;62652;42.274;-71.436;2023-08-21T02:14:00;34.33;30.50;18.00
64861;PMS5003;62652;42.274;-71.436;2023-08-21T02:15:00;33.90;31.03;17.73
64861;PMS5003;62652;42.274;-71.436;2023-08-21T02:16:00;29.70;28.97;17.37
64861;PMS5003;62652;42.274;-71.436;2023-08-21T02:17:00;28.03;26.67;16.73
64861;PMS5003;62652;42.274;-71.436;2023-08-21T02:18:00;31.13;29.33;17.33
64861;PMS5003;62652;42.274;-71.436;2023-08-21T02:19:00;30.17;27.63;16.80
64861;PMS5003;62652;42.274;-71.436;2023-08-21T02:20:00;31.73;29.93;18.43
64861;PMS5003;62652;42.274;-71.436;2023-08-21T02:21:01;30.27;29.00;17.60
64861;PMS5003;62652;42.274;-71.436;2023-08-21T02:22:00;28.57;27.37;17.40
64861;PMS5003;62652;42.274;-71.436;2023-08-21T02:23:00;31.57;28.57;19.00
64861;PMS5003;62652;42.274;-71.436;2023-08-21T02:24:00;29.63;26.43;15.73
64861;PMS5003;62652;42.274;-71.436;2023-08-21T02:25:00;33.07;30.20;18.00
64861;PMS5003;62652;42.274;-71.436;2023-08-21T02:26:00;29.30;28.73;17.87
64861;PMS5003;62652;42.274;-71.436;2023-08-21T02:27:00;33.73;30.53;18.80
64861;PMS5003;62652;42.274;-71.436;2023-08-21T02:28:00;30.77;29.00;16.53
64861;PMS5003;62652;42.274;-71.436;2023-08-21T02:29:00;30.10;27.80;18.23
64861;PMS5003;62652;42.274;-71.436;2023-08-21T02:30:00;31.43;29.07;18.07
64861;PMS5003;62652;42.274;-71.436;2023-08-21T02:31:00;31.00;29.13;17.67
64861;PMS5003;62652;42.274;-71.436;2023-08-21T02:32:00;30.90;29.00;17.80
64861;PMS5003;62652;42.274;-71.436;2023-08-21T02:33:00;31.23;29.67;18.00
64861;PMS5003;62652;42.274;-71.436;2023-08-21T02:34:00;29.63;28.73;18.43
64861;PMS5003;62652;42.274;-71.436;2023-08-21T02:35:00;30.40;27.83;17.23
64861;PMS5003;62652;42.274;-71.436;2023-08-21T02:36:00;31.20;29.47;16.87
64861;PMS5003;62652;42.274;-71.436;2023-08-21T02:37:00;30.27;28.47;17.23
64861;PMS5003;62652;42.274;-71.436;2023-08-21T02:38:00;29.53;26.80;17.07
64861;PMS5003;62652;42.274;-71.436;2023-08-21T02:39:00;28.93;27.73;16.20
64861;PMS5003;62652;42.274;-71.436;2023-08-21T02:40:00;30.90;27.63;16.87
64861;PMS5003;62652;42.274;-71.436;2023-08-21T02:41:00;31.20;29.43;17.50
64861;PMS5003;62652;42.274;-71.436;2023-08-21T02:42:00;29.63;27.83;17.90
64861;PMS5003;62652;42.274;-71.436;2023-08-21T02:43:00;30.13;27.73;16.63
64861;PMS5003;62652;42.274;-71.436;2023-08-21T02:44:00;31.23;29.67;18.07
64861;PMS5003;62652;42.274;-71.436;2023-08-21T02:45:00;31.63;29.43;18.17
64861;PMS5003;62652;42.274;-71.436;2023-08-21T02:46:00;31.27;29.40;16.67
64861;PMS5003;62652;42.274;-71.436;2023-08-21T02:47:00;26.80;26.17;17.47
64861;PMS5003;62652;42.274;-71.436;2023-08-21T02:48:00;33.97;31.03;17.77
64861;PMS5003;62652;42.274;-71.436;2023-08-21T02:49:00;31.23;28.97;17.57
64861;PMS5003;62652;42.274;-71.436;2023-08-21T02:50:00;30.83;28.50;17.17
64861;PMS5003;62652;42.274;-71.436;2023-08-21T02:51:00;28.33;27.60;18.00
64861;PMS5003;62652;42.274;-71.436;2023-08-21T02:52:00;30.23;28.20;16.23
64861;PMS5003;62652;42.274;-71.436;2023-08-21T02:53:00;29.20;28.40;17.97
64861;PMS5003;62652;42.274;-71.436;2023-08-21T02:54:00;29.43;27.57;15.67
64861;PMS5003;62652;42.274;-71.436;2023-08-21T02:55:00;28.13;25.70;16.17
64861;PMS5003;62652;42.274;-71.436;2023-08-21T02:56:00;33.37;29.60;18.37
64861;PMS5003;62652;42.274;-71.436;2023-08-21T02:57:00;32.53;29.20;18.40
64861;PMS5003;62652;42.274;-71.436;2023-08-21T02:58:00;30.90;29.73;17.73
64861;PMS5003;62652;42.274;-71.436;2023-08-21T02:59:00;27.70;26.27;15.60
64861;PMS5003;62652;42.274;-71.436;2023-08-21T03:00:00;28.70;26.83;16.97
64861;PMS5003;62652;42.274;-71.436;2023-08-21T03:01:00;29.93;28.47;17.53
64861;PMS5003;62652;42.274;-71.436;2023-08-21T03:02:00;29.90;29.33;17.20
64861;PMS5003;62652;42.274;-71.436;2023-08-21T03:03:00;28.63;27.97;16.83
64861;PMS5003;62652;42.274;-71.436;2023-08-21T03:04:00;31.63;30.37;16.77
64861;PMS5003;62652;42.274;-71.436;2023-08-21T03:05:01;30.40;28.87;18.33
64861;PMS5003;62652;42.274;-71.436;2023-08-21T03:06:00;28.73;27.93;18.57
64861;PMS5003;62652;42.274;-71.436;2023-08-21T03:07:00;30.17;27.73;17.37
64861;PMS5003;62652;42.274;-71.436;2023-08-21T03:08:00;30.93;29.33;17.70
64861;PMS5003;62652;42.274;-71.436;2023-08-21T03:09:00;32.10;30.03;17.33
64861;PMS5003;62652;42.274;-71.436;2023-08-21T03:10:00;30.03;29.10;17.90
64861;PMS5003;62652;42.274;-71.436;2023-08-21T03:11:00;30.17;27.97;16.03
64861;PMS5003;62652;42.274;-71.436;2023-08-21T03:12:00;28.90;28.10;16.87
64861;PMS5003;62652;42.274;-71.436;2023-08-21T03:13:00;29.37;27.23;15.77
64861;PMS5003;62652;42.274;-71.436;2023-08-21T03:14:00;31.00;29.40;17.47
64861;PMS5003;62652;42.274;-71.436;2023-08-21T03:15:00;30.47;29.47;18.20
64861;PMS5003;62652;42.274;-71.436;2023-08-21T03:16:00;31.27;29.60;18.23
64861;PMS5003;62652;42.274;-71.436;2023-08-21T03:17:00;32.30;29.43;18.33
64861;PMS5003;62652;42.274;-71.436;2023-08-21T03:18:00;29.27;27.70;16.20
64861;PMS5003;62652;42.274;-71.436;2023-08-21T03:19:00;33.00;29.77;18.13
64861;PMS5003;62652;42.274;-71.436;2023-08-21T03:20:00;30.50;29.37;17.63
64861;PMS5003;62652;42.274;-71.436;2023-08-21T03:21:00;29.87;27.73;16.93
64861;PMS5003;62652;42.274;-71.436;2023-08-21T03:22:00;27.13;25.50;15.97
64861;PMS5003;62652;42.274;-71.436;2023-08-21T03:23:00;29.83;27.83;16.80
64861;PMS5003;62652;42.274;-71.436;2023-08-21T03:24:00;27.27;26.40;15.37
64861;PMS5003;62652;42.274;-71.436;2023-08-21T03:25:00;26.67;25.40;15.67
64861;PMS5003;62652;42.274;-71.436;2023-08-21T03:26:00;31.10;29.00;16.90
64861;PMS5003;62652;42.274;-71.436;2023-08-21T03:27:01;28.07;25.20;15.40
64861;PMS5003;62652;42.274;-71.436;2023-08-21T03:28:00;28.73;27.27;15.07
64861;PMS5003;62652;42.274;-71.436;2023-08-21T03:29:00;26.43;25.57;15.53
64861;PMS5003;62652;42.274;-71.436;2023-08-21T03:30:00;31.53;28.53;17.20
64861;PMS5003;62652;42.274;-71.436;2023-08-21T03:31:00;26.90;24.00;15.33
64861;PMS5003;62652;42.274;-71.436;2023-08-21T03:32:00;28.80;27.50;15.77
64861;PMS5003;62652;42.274;-71.436;2023-08-21T03:33:00;26.97;25.73;16.93
64861;PMS5003;62652;42.274;-71.436;2023-08-21T03:34:00;29.33;26.70;16.50
64861;PMS5003;62652;42.274;-71.436;2023-08-21T03:35:00;28.13;26.60;16.53
64861;PMS5003;62652;42.274;-71.436;2023-08-21T03:36:00;25.70;24.80;15.73
64861;PMS5003;62652;42.274;-71.436;2023-08-21T03:37:00;28.67;27.00;15.57
64861;PMS5003;62652;42.274;-71.436;2023-08-21T03:38:00;29.67;27.10;16.80
64861;PMS5003;62652;42.274;-71.436;2023-08-21T03:39:01;30.97;28.73;17.53
64861;PMS5003;62652;42.274;-71.436;2023-08-21T03:40:01;31.67;29.90;16.53
64861;PMS5003;62652;42.274;-71.436;2023-08-21T03:41:00;30.23;28.70;17.37
64861;PMS5003;62652;42.274;-71.436;2023-08-21T03:42:00;29.00;27.10;16.40
64861;PMS5003;62652;42.274;-71.436;2023-08-21T03:43:00;27.57;27.00;16.80
64861;PMS5003;62652;42.274;-71.436;2023-08-21T03:44:00;29.03;27.17;16.33
64861;PMS5003;62652;42.274;-71.436;2023-08-21T03:45:00;27.63;26.30;16.07
64861;PMS5003;62652;42.274;-71.436;2023-08-21T03:46:00;28.53;26.77;16.47
64861;PMS5003;62652;42.274;-71.436;2023-08-21T03:47:00;25.23;24.00;14.73
64861;PMS5003;62652;42.274;-71.436;2023-08-21T03:48:00;29.43;28.00;16.77
64861;PMS5003;62652;42.274;-71.436;2023-08-21T03:49:01;28.27;26.83;16.80
64861;PMS5003;62652;42.274;-71.436;2023-08-21T03:50:00;24.40;21.97;14.40
64861;PMS5003;62652;42.274;-71.436;2023-08-21T03:51:00;30.90;26.60;16.20
64861;PMS5003;62652;42.274;-71.436;2023-08-21T03:52:00;27.97;26.67;15.70
64861;PMS5003;62652;42.274;-71.436;2023-08-21T03:53:00;28.07;25.90;16.23
64861;PMS5003;62652;42.274;-71.436;2023-08-21T03:54:00;30.90;28.93;16.77
64861;PMS5003;62652;42.274;-71.436;2023-08-21T03:55:00;25.77;23.97;15.23
64861;PMS5003;62652;42.274;-71.436;2023-08-21T03:56:00;28.90;27.60;15.73
64861;PMS5003;62652;42.274;-71.436;2023-08-21T03:57:00;27.13;25.70;15.23
64861;PMS5003;62652;42.274;-71.436;2023-08-21T03:58:00;26.57;26.10;15.37
64861;PMS5003;62652;42.274;-71.436;2023-08-21T03:59:00;28.47;27.40;15.83
64861;PMS5003;62652;42.274;-71.436;2023-08-21T04:00:01;26.50;24.47;15.70
64861;PMS5003;62652;42.274;-71.436;2023-08-21T04:01:00;29.47;28.90;16.77
64861;PMS5003;62652;42.274;-71.436;2023-08-21T04:02:00;29.90;27.80;17.20
64861;PMS5003;62652;42.274;-71.436;2023-08-21T04:03:00;26.70;25.23;15.53
64861;PMS5003;62652;42.274;-71.436;2023-08-21T04:04:00;24.60;24.60;15.53
64861;PMS5003;62652;42.274;-71.436;2023-08-21T04:05:00;28.63;25.97;16.73
64861;PMS5003;62652;42.274;-71.436;2023-08-21T04:06:01;33.57;30.37;17.13
64861;PMS5003;62652;42.274;-71.436;2023-08-21T04:07:00;30.27;29.07;17.37
64861;PMS5003;62652;42.274;-71.436;2023-08-21T04:08:00;29.50;27.90;15.90
64861;PMS5003;62652;42.274;-71.436;2023-08-21T04:09:00;25.47;24.37;16.23
64861;PMS5003;62652;42.274;-71.436;2023-08-21T04:10:00;30.03;28.53;16.17
64861;PMS5003;62652;42.274;-71.436;2023-08-21T04:11:01;31.13;28.60;15.83
64861;PMS5003;62652;42.274;-71.436;2023-08-21T04:12:00;26.10;23.83;15.37
64861;PMS5003;62652;42.274;-71.436;2023-08-21T04:13:00;29.37;28.13;17.87
64861;PMS5003;62652;42.274;-71.436;2023-08-21T04:14:00;27.20;26.80;16.23
64861;PMS5003;62652;42.274;-71.436;2023-08-21T04:15:00;26.30;25.17;16.30
64861;PMS5003;62652;42.274;-71.436;2023-08-21T04:16:00;30.87;28.50;16.93
64861;PMS5003;62652;42.274;-71.436;2023-08-21T04:17:00;27.97;26.03;15.87
64861;PMS5003;62652;42.274;-71.436;2023-08-21T04:18:00;26.83;26.00;16.33
64861;PMS5003;62652;42.274;-71.436;2023-08-21T04:19:00;30.60;28.20;17.73
64861;PMS5003;62652;42.274;-71.436;2023-08-21T04:20:00;26.23;25.13;17.20
64861;PMS5003;62652;42.274;-71.436;2023-08-21T04:21:00;28.27;26.83;16.77
64861;PMS5003;62652;42.274;-71.436;2023-08-21T04:22:00;31.03;29.57;17.33
64861;PMS5003;62652;42.274;-71.436;2023-08-21T04:23:00;29.57;28.17;17.50
64861;PMS5003;62652;42.274;-71.436;2023-08-21T04:24:00;26.67;25.70;16.50
64861;PMS5003;62652;42.274;-71.436;2023-08-21T04:25:00;28.03;25.43;15.03
64861;PMS5003;62652;42.274;-71.436;2023-08-21T04:26:01;29.20;27.43;17.00
64861;PMS5003;62652;42.274;-71.436;2023-08-21T04:27:00;25.13;24.73;16.90
64861;PMS5003;62652;42.274;-71.436;2023-08-21T04:28:00;27.90;26.93;18.03
64861;PMS5003;62652;42.274;-71.436;2023-08-21T04:29:00;27.63;25.53;16.07
64861;PMS5003;62652;42.274;-71.436;2023-08-21T04:30:00;27.60;26.10;16.37
64861;PMS5003;62652;42.274;-71.436;2023-08-21T04:31:00;30.60;28.47;16.90
64861;PMS5003;62652;42.274;-71.436;2023-08-21T04:32:00;29.30;27.57;15.90
64861;PMS5003;62652;42.274;-71.436;2023-08-21T04:33:01;29.03;25.23;16.00
64861;PMS5003;62652;42.274;-71.436;2023-08-21T04:34:00;28.23;24.77;15.73
64861;PMS5003;62652;42.274;-71.436;2023-08-21T04:35:00;34.20;27.63;16.83
64861;PMS5003;62652;42.274;-71.436;2023-08-21T04:36:00;29.00;28.10;17.10
64861;PMS5003;62652;42.274;-71.436;2023-08-21T04:37:00;28.60;26.90;15.83
64861;PMS5003;62652;42.274;-71.436;2023-08-21T04:38:00;28.17;26.73;15.50
64861;PMS5003;62652;42.274;-71.436;2023-08-21T04:39:00;26.40;25.00;14.83
64861;PMS5003;62652;42.274;-71.436;2023-08-21T04:40:00;29.93;27.97;16.23
64861;PMS5003;62652;42.274;-71.436;2023-08-21T04:41:08;28.77;26.90;15.97
64861;PMS5003;62652;42.274;-71.436;2023-08-21T04:42:00;29.77;27.03;17.00
64861;PMS5003;62652;42.274;-71.436;2023-08-21T04:43:00;28.53;26.50;16.53
64861;PMS5003;62652;42.274;-71.436;2023-08-21T04:44:00;26.70;24.67;15.33
64861;PMS5003;62652;42.274;-71.436;2023-08-21T04:45:00;28.23;27.30;16.27
64861;PMS5003;62652;42.274;-71.436;2023-08-21T04:46:00;30.97;28.03;17.03
64861;PMS5003;62652;42.274;-71.436;2023-08-21T04:47:18;29.97;27.40;16.70
64861;PMS5003;62652;42.274;-71.436;2023-08-21T04:48:00;27.27;25.47;15.70
64861;PMS5003;62652;42.274;-71.436;2023-08-21T04:49:00;25.63;24.70;15.83
64861;PMS5003;62652;42.274;-71.436;2023-08-21T04:50:00;28.37;26.30;15.87
64861;PMS5003;62652;42.274;-71.436;2023-08-21T04:51:00;28.67;27.50;16.20
64861;PMS5003;62652;42.274;-71.436;2023-08-21T04:52:00;28.57;26.83;15.20
64861;PMS5003;62652;42.274;-71.436;2023-08-21T04:53:00;30.90;28.03;17.83
64861;PMS5003;62652;42.274;-71.436;2023-08-21T04:54:00;26.07;25.23;16.37
64861;PMS5003;62652;42.274;-71.436;2023-08-21T04:55:00;29.50;28.33;15.87
64861;PMS5003;62652;42.274;-71.436;2023-08-21T04:56:00;27.00;25.17;15.20
64861;PMS5003;62652;42.274;-71.436;2023-08-21T04:57:00;26.97;25.67;16.83
64861;PMS5003;62652;42.274;-71.436;2023-08-21T04:58:00;28.23;26.53;16.13
64861;PMS5003;62652;42.274;-71.436;2023-08-21T04:59:00;30.33;28.80;15.47
64861;PMS5003;62652;42.274;-71.436;2023-08-21T05:00:00;29.20;27.33;15.43
64861;PMS5003;62652;42.274;-71.436;2023-08-21T05:01:00;25.60;24.37;15.00
64861;PMS5003;62652;42.274;-71.436;2023-08-21T05:02:00;26.10;25.30;15.57
64861;PMS5003;62652;42.274;-71.436;2023-08-21T05:03:00;26.60;25.27;15.63
64861;PMS5003;62652;42.274;-71.436;2023-08-21T05:04:00;27.00;25.47;15.20
64861;PMS5003;62652;42.274;-71.436;2023-08-21T05:05:00;31.50;27.60;17.33
64861;PMS5003;62652;42.274;-71.436;2023-08-21T05:06:00;28.70;27.83;17.33
64861;PMS5003;62652;42.274;-71.436;2023-08-21T05:07:00;24.13;22.77;16.17
64861;PMS5003;62652;42.274;-71.436;2023-08-21T05:08:00;31.23;29.27;18.37
64861;PMS5003;62652;42.274;-71.436;2023-08-21T05:09:00;29.10;27.53;15.57
64861;PMS5003;62652;42.274;-71.436;2023-08-21T05:10:00;29.30;26.67;15.23
64861;PMS5003;62652;42.274;-71.436;2023-08-21T05:11:00;24.17;22.80;15.93
64861;PMS5003;62652;42.274;-71.436;2023-08-21T05:12:00;27.63;26.00;15.30
64861;PMS5003;62652;42.274;-71.436;2023-08-21T05:13:00;29.13;27.13;16.03
64861;PMS5003;62652;42.274;-71.436;2023-08-21T05:14:00;28.47;26.77;16.37
64861;PMS5003;62652;42.274;-71.436;2023-08-21T05:15:00;26.90;25.83;17.47
64861;PMS5003;62652;42.274;-71.436;2023-08-21T05:16:00;27.27;25.60;15.70
64861;PMS5003;62652;42.274;-71.436;2023-08-21T05:17:00;25.47;24.57;14.63
64861;PMS5003;62652;42.274;-71.436;2023-08-21T05:18:00;30.07;27.30;15.60
64861;PMS5003;62652;42.274;-71.436;2023-08-21T05:19:00;25.27;24.07;16.03
64861;PMS5003;62652;42.274;-71.436;2023-08-21T05:20:00;28.33;27.53;16.00
64861;PMS5003;62652;42.274;-71.436;2023-08-21T05:21:00;27.80;25.47;15.17
64861;PMS5003;62652;42.274;-71.436;2023-08-21T05:22:00;29.67;26.03;16.63
64861;PMS5003;62652;42.274;-71.436;2023-08-21T05:23:00;27.60;26.73;15.97
64861;PMS5003;62652;42.274;-71.436;2023-08-21T05:24:00;26.57;25.47;14.97
64861;PMS5003;62652;42.274;-71.436;2023-08-21T05:25:00;26.13;23.53;15.73
64861;PMS5003;62652;42.274;-71.436;2023-08-21T05:26:00;26.80;26.13;16.97